Time;durP1;ratioP1;P1;durP2;ratioP2;P2;SDS_P1;SDS_P2;PMS_P1;PMS_P2;Temp;Humidity;BMP_temperature;BMP_pressure;BME280_temperature;BME280_humidity;BME280_pressure;Samples;Min_cycle;Max_cycle;Signal;HPM_P1;HPM_P2
2022/05/01 00:00:12;;;;;;;27.55;23.2;;;;;;;9.57;69.41504;95523.32;;;;
2022/05/01 00:01:13;;;;;;;27.55;23.2;;;;;;;9.57;69.41504;95523.32;;;;
2022/05/01 00:02:14;;;;;;;27.55;23.2;;;;;;;9.57;69.41504;95523.32;;;;
2022/05/01 00:03:30;;;;;;;27.55;23.2;;;;;;;9.57;69.41504;95523.32;;;;
2022/05/01 00:04:31;;;;;;;27.55;23.2;;;;;;;9.57;69.41504;95523.32;;;;
2022/05/01 00:05:32;;;;;;;26.25;23.05;;;;;;;9.6;69.70801;95514.89;;;;
2022/05/01 00:06:33;;;;;;;26.25;23.05;;;;;;;9.6;69.70801;95514.89;;;;
2022/05/01 00:07:34;;;;;;;26.25;23.05;;;;;;;9.6;69.70801;95514.89;;;;
2022/05/01 00:08:34;;;;;;;26.25;23.05;;;;;;;9.6;69.70801;95514.89;;;;
2022/05/01 00:09:37;;;;;;;26.25;23.05;;;;;;;9.6;69.70801;95514.89;;;;
2022/05/01 00:10:37;;;;;;;26.25;23.05;;;;;;;9.6;69.70801;95514.89;;;;
2022/05/01 00:11:38;;;;;;;26.25;23.05;;;;;;;9.6;69.70801;95514.89;;;;
2022/05/01 00:12:39;;;;;;;26.25;23.05;;;;;;;9.6;69.70801;95514.89;;;;
2022/05/01 00:13:40;;;;;;;26.25;23.05;;;;;;;9.6;69.70801;95514.89;;;;
2022/05/01 00:14:42;;;;;;;26.25;23.05;;;;;;;9.6;69.70801;95514.89;;;;
2022/05/01 00:15:42;;;;;;;26.25;23.05;;;;;;;9.6;69.70801;95514.89;;;;
2022/05/01 00:16:43;;;;;;;25.8;22.9;;;;;;;9.56;69.96973;95513.59;;;;
2022/05/01 00:17:44;;;;;;;25.8;22.9;;;;;;;9.56;69.96973;95513.59;;;;
2022/05/01 00:18:44;;;;;;;25.8;22.9;;;;;;;9.56;69.96973;95513.59;;;;
2022/05/01 00:19:45;;;;;;;25.8;22.9;;;;;;;9.56;69.96973;95513.59;;;;
2022/05/01 00:20:45;;;;;;;25.8;22.9;;;;;;;9.56;69.96973;95513.59;;;;
2022/05/01 00:21:46;;;;;;;25.8;22.9;;;;;;;9.56;69.96973;95513.59;;;;
2022/05/01 00:22:46;;;;;;;25.8;22.9;;;;;;;9.56;69.96973;95513.59;;;;
2022/05/01 00:23:47;;;;;;;25.8;22.9;;;;;;;9.56;69.96973;95513.59;;;;
2022/05/01 00:24:47;;;;;;;25.8;22.9;;;;;;;9.56;69.96973;95513.59;;;;
2022/05/01 00:25:48;;;;;;;25.8;22.9;;;;;;;9.56;69.96973;95513.59;;;;
2022/05/01 00:26:48;;;;;;;24.35;21.7;;;;;;;9.61;70.28711;95513.73;;;;
2022/05/01 00:27:49;;;;;;;24.35;21.7;;;;;;;9.61;70.28711;95513.73;;;;
2022/05/01 00:28:49;;;;;;;24.35;21.7;;;;;;;9.61;70.28711;95513.73;;;;
2022/05/01 00:29:50;;;;;;;24.35;21.7;;;;;;;9.61;70.28711;95513.73;;;;
2022/05/01 00:30:50;;;;;;;24.35;21.7;;;;;;;9.61;70.28711;95513.73;;;;
2022/05/01 00:31:51;;;;;;;24.35;21.7;;;;;;;9.61;70.28711;95513.73;;;;
2022/05/01 00:38:04;;;;;;;23.55;21.05;;;;;;;9.57;70.43066;95517.11;;;;
2022/05/01 00:39:05;;;;;;;23.55;21.05;;;;;;;9.57;70.43066;95517.11;;;;
2022/05/01 00:40:07;;;;;;;23.55;21.05;;;;;;;9.57;70.43066;95517.11;;;;
2022/05/01 00:41:09;;;;;;;23.55;21.05;;;;;;;9.57;70.43066;95517.11;;;;
2022/05/01 00:42:09;;;;;;;23.55;21.05;;;;;;;9.57;70.43066;95517.11;;;;
2022/05/01 00:43:10;;;;;;;23.55;21.05;;;;;;;9.57;70.43066;95517.11;;;;
2022/05/01 00:44:10;;;;;;;23.55;21.05;;;;;;;9.57;70.43066;95517.11;;;;
2022/05/01 00:45:12;;;;;;;23.55;21.05;;;;;;;9.57;70.43066;95517.11;;;;
2022/05/01 00:46:13;;;;;;;23.55;21.05;;;;;;;9.57;70.43066;95517.11;;;;
2022/05/01 00:47:13;;;;;;;23.55;21.05;;;;;;;9.57;70.43066;95517.11;;;;
2022/05/01 00:48:14;;;;;;;21.3;19.05;;;;;;;9.56;70.85449;95515.03;;;;
2022/05/01 00:49:14;;;;;;;21.3;19.05;;;;;;;9.56;70.85449;95515.03;;;;
2022/05/01 00:50:17;;;;;;;21.3;19.05;;;;;;;9.56;70.85449;95515.03;;;;
2022/05/01 00:51:17;;;;;;;21.3;19.05;;;;;;;9.56;70.85449;95515.03;;;;
2022/05/01 00:52:19;;;;;;;21.3;19.05;;;;;;;9.56;70.85449;95515.03;;;;
2022/05/01 00:53:20;;;;;;;21.3;19.05;;;;;;;9.56;70.85449;95515.03;;;;
2022/05/01 00:54:20;;;;;;;21.3;19.05;;;;;;;9.56;70.85449;95515.03;;;;
2022/05/01 00:55:24;;;;;;;21.3;19.05;;;;;;;9.56;70.85449;95515.03;;;;
2022/05/01 00:56:25;;;;;;;21.3;19.05;;;;;;;9.56;70.85449;95515.03;;;;
2022/05/01 00:57:27;;;;;;;21.3;19.05;;;;;;;9.56;70.85449;95515.03;;;;
2022/05/01 00:58:27;;;;;;;21.3;19.05;;;;;;;9.56;70.85449;95515.03;;;;
2022/05/01 00:59:29;;;;;;;21.8;19.5;;;;;;;9.47;71.03516;95512.65;;;;
2022/05/01 01:00:31;;;;;;;21.8;19.5;;;;;;;9.47;71.03516;95512.65;;;;
2022/05/01 01:01:32;;;;;;;21.8;19.5;;;;;;;9.47;71.03516;95512.65;;;;
2022/05/01 01:02:33;;;;;;;21.8;19.5;;;;;;;9.47;71.03516;95512.65;;;;
2022/05/01 01:03:33;;;;;;;21.8;19.5;;;;;;;9.47;71.03516;95512.65;;;;
2022/05/01 01:04:34;;;;;;;21.8;19.5;;;;;;;9.47;71.03516;95512.65;;;;
2022/05/01 01:05:34;;;;;;;21.8;19.5;;;;;;;9.47;71.03516;95512.65;;;;
2022/05/01 01:06:35;;;;;;;21.8;19.5;;;;;;;9.47;71.03516;95512.65;;;;
2022/05/01 01:07:36;;;;;;;21.8;19.5;;;;;;;9.47;71.03516;95512.65;;;;
2022/05/01 01:08:36;;;;;;;21.8;19.5;;;;;;;9.47;71.03516;95512.65;;;;
2022/05/01 01:09:37;;;;;;;25.15;22.35;;;;;;;9.46;71.36328;95510.99;;;;
2022/05/01 01:10:37;;;;;;;25.15;22.35;;;;;;;9.46;71.36328;95510.99;;;;
2022/05/01 01:11:38;;;;;;;25.15;22.35;;;;;;;9.46;71.36328;95510.99;;;;
2022/05/01 01:12:55;;;;;;;25.15;22.35;;;;;;;9.46;71.36328;95510.99;;;;
2022/05/01 01:13:55;;;;;;;25.15;22.35;;;;;;;9.46;71.36328;95510.99;;;;
2022/05/01 01:14:58;;;;;;;25.15;22.35;;;;;;;9.46;71.36328;95510.99;;;;
2022/05/01 01:15:58;;;;;;;25.15;22.35;;;;;;;9.46;71.36328;95510.99;;;;
2022/05/01 01:16:59;;;;;;;25.15;22.35;;;;;;;9.46;71.36328;95510.99;;;;
2022/05/01 01:17:59;;;;;;;25.15;22.35;;;;;;;9.46;71.36328;95510.99;;;;
2022/05/01 01:19:01;;;;;;;25.15;22.35;;;;;;;9.46;71.36328;95510.99;;;;
2022/05/01 01:20:02;;;;;;;26.5;23.6;;;;;;;9.4;71.57617;95509.72;;;;
2022/05/01 01:21:09;;;;;;;26.5;23.6;;;;;;;9.4;71.57617;95509.72;;;;
2022/05/01 01:22:10;;;;;;;26.5;23.6;;;;;;;9.4;71.57617;95509.72;;;;
2022/05/01 01:23:11;;;;;;;26.5;23.6;;;;;;;9.4;71.57617;95509.72;;;;
2022/05/01 01:24:13;;;;;;;26.5;23.6;;;;;;;9.4;71.57617;95509.72;;;;
2022/05/01 01:25:13;;;;;;;26.5;23.6;;;;;;;9.4;71.57617;95509.72;;;;
2022/05/01 01:26:17;;;;;;;26.5;23.6;;;;;;;9.4;71.57617;95509.72;;;;
2022/05/01 01:27:20;;;;;;;26.5;23.6;;;;;;;9.4;71.57617;95509.72;;;;
2022/05/01 01:28:21;;;;;;;26.5;23.6;;;;;;;9.4;71.57617;95509.72;;;;
2022/05/01 01:34:34;;;;;;;29.6;25.95;;;;;;;9.42;71.96582;95507.2;;;;
2022/05/01 01:35:37;;;;;;;29.6;25.95;;;;;;;9.42;71.96582;95507.2;;;;
2022/05/01 01:36:38;;;;;;;29.6;25.95;;;;;;;9.42;71.96582;95507.2;;;;
2022/05/01 01:37:41;;;;;;;29.6;25.95;;;;;;;9.42;71.96582;95507.2;;;;
2022/05/01 01:38:43;;;;;;;29.6;25.95;;;;;;;9.42;71.96582;95507.2;;;;
2022/05/01 01:39:44;;;;;;;29.6;25.95;;;;;;;9.42;71.96582;95507.2;;;;
2022/05/01 01:40:46;;;;;;;29.6;25.95;;;;;;;9.42;71.96582;95507.2;;;;
2022/05/01 01:41:49;;;;;;;31.65;26.7;;;;;;;9.34;72.2207;95498.89;;;;
2022/05/01 01:42:52;;;;;;;31.65;26.7;;;;;;;9.34;72.2207;95498.89;;;;
2022/05/01 01:43:55;;;;;;;31.65;26.7;;;;;;;9.34;72.2207;95498.89;;;;
2022/05/01 01:44:56;;;;;;;31.65;26.7;;;;;;;9.34;72.2207;95498.89;;;;
2022/05/01 01:45:58;;;;;;;31.65;26.7;;;;;;;9.34;72.2207;95498.89;;;;
2022/05/01 01:47:00;;;;;;;31.65;26.7;;;;;;;9.34;72.2207;95498.89;;;;
2022/05/01 01:48:00;;;;;;;31.65;26.7;;;;;;;9.34;72.2207;95498.89;;;;
2022/05/01 01:49:09;;;;;;;31.65;26.7;;;;;;;9.34;72.2207;95498.89;;;;
2022/05/01 01:50:10;;;;;;;31.65;26.7;;;;;;;9.34;72.2207;95498.89;;;;
2022/05/01 01:51:12;;;;;;;31.65;26.7;;;;;;;9.34;72.2207;95498.89;;;;
2022/05/01 01:52:13;;;;;;;32.45001;28.2;;;;;;;9.3;72.72461;95503.61;;;;
2022/05/01 01:53:13;;;;;;;32.45001;28.2;;;;;;;9.3;72.72461;95503.61;;;;
2022/05/01 01:54:14;;;;;;;32.45001;28.2;;;;;;;9.3;72.72461;95503.61;;;;
2022/05/01 01:55:14;;;;;;;32.45001;28.2;;;;;;;9.3;72.72461;95503.61;;;;
2022/05/01 01:56:16;;;;;;;32.45001;28.2;;;;;;;9.3;72.72461;95503.61;;;;
2022/05/01 01:57:16;;;;;;;32.45001;28.2;;;;;;;9.3;72.72461;95503.61;;;;
2022/05/01 01:58:18;;;;;;;32.45001;28.2;;;;;;;9.3;72.72461;95503.61;;;;
2022/05/01 01:59:19;;;;;;;32.45001;28.2;;;;;;;9.3;72.72461;95503.61;;;;
2022/05/01 02:00:20;;;;;;;32.45001;28.2;;;;;;;9.3;72.72461;95503.61;;;;
2022/05/01 02:01:20;;;;;;;32.45001;28.2;;;;;;;9.3;72.72461;95503.61;;;;
2022/05/01 02:02:20;;;;;;;32.45001;28.2;;;;;;;9.3;72.72461;95503.61;;;;
2022/05/01 02:03:22;;;;;;;38.65;30.1;;;;;;;9.23;73.00195;95497.85;;;;
2022/05/01 02:04:23;;;;;;;38.65;30.1;;;;;;;9.23;73.00195;95497.85;;;;
2022/05/01 02:05:24;;;;;;;38.65;30.1;;;;;;;9.23;73.00195;95497.85;;;;
2022/05/01 02:06:25;;;;;;;38.65;30.1;;;;;;;9.23;73.00195;95497.85;;;;
2022/05/01 02:07:28;;;;;;;38.65;30.1;;;;;;;9.23;73.00195;95497.85;;;;
2022/05/01 02:08:30;;;;;;;38.65;30.1;;;;;;;9.23;73.00195;95497.85;;;;
2022/05/01 02:09:32;;;;;;;38.65;30.1;;;;;;;9.23;73.00195;95497.85;;;;
2022/05/01 02:10:32;;;;;;;38.65;30.1;;;;;;;9.23;73.00195;95497.85;;;;
2022/05/01 02:11:33;;;;;;;38.65;30.1;;;;;;;9.23;73.00195;95497.85;;;;
2022/05/01 02:12:34;;;;;;;38.65;30.1;;;;;;;9.23;73.00195;95497.85;;;;
2022/05/01 02:13:34;;;;;;;38.55;30.65;;;;;;;9.23;73.41602;95497.47;;;;
2022/05/01 02:14:35;;;;;;;38.55;30.65;;;;;;;9.23;73.41602;95497.47;;;;
2022/05/01 02:15:36;;;;;;;38.55;30.65;;;;;;;9.23;73.41602;95497.47;;;;
2022/05/01 02:16:37;;;;;;;38.55;30.65;;;;;;;9.23;73.41602;95497.47;;;;
2022/05/01 02:17:39;;;;;;;38.55;30.65;;;;;;;9.23;73.41602;95497.47;;;;
2022/05/01 02:18:39;;;;;;;38.55;30.65;;;;;;;9.23;73.41602;95497.47;;;;
2022/05/01 02:19:40;;;;;;;38.55;30.65;;;;;;;9.23;73.41602;95497.47;;;;
2022/05/01 02:21:47;;;;;;;38.55;30.65;;;;;;;9.23;73.41602;95497.47;;;;
2022/05/01 02:22:47;;;;;;;38.55;30.65;;;;;;;9.23;73.41602;95497.47;;;;
2022/05/01 02:23:48;;;;;;;38.55;30.65;;;;;;;9.23;73.41602;95497.47;;;;
2022/05/01 02:24:49;;;;;;;38.55;30.65;;;;;;;9.23;73.41602;95497.47;;;;
2022/05/01 02:25:50;;;;;;;38.55;30.65;;;;;;;9.23;73.41602;95497.47;;;;
2022/05/01 02:26:51;;;;;;;38.55;30.65;;;;;;;9.23;73.41602;95497.47;;;;
2022/05/01 02:27:51;;;;;;;38.55;30.65;;;;;;;9.23;73.41602;95497.47;;;;
2022/05/01 02:28:52;;;;;;;38.55;30.65;;;;;;;9.23;73.41602;95497.47;;;;
2022/05/01 02:29:52;;;;;;;38.55;30.65;;;;;;;9.23;73.41602;95497.47;;;;
2022/05/01 02:30:53;;;;;;;38.55;30.65;;;;;;;9.23;73.41602;95497.47;;;;
2022/05/01 02:31:53;;;;;;;38.55;30.65;;;;;;;9.23;73.41602;95497.47;;;;
2022/05/01 02:32:54;;;;;;;38.55;30.65;;;;;;;9.23;73.41602;95497.47;;;;
2022/05/01 02:33:54;;;;;;;38.55;30.65;;;;;;;9.23;73.41602;95497.47;;;;
2022/05/01 02:34:55;;;;;;;43.3;32.75;;;;;;;9.1;74.11035;95490.34;;;;
2022/05/01 02:35:56;;;;;;;43.3;32.75;;;;;;;9.1;74.11035;95490.34;;;;
2022/05/01 02:36:56;;;;;;;43.3;32.75;;;;;;;9.1;74.11035;95490.34;;;;
2022/05/01 02:37:57;;;;;;;43.3;32.75;;;;;;;9.1;74.11035;95490.34;;;;
2022/05/01 02:38:57;;;;;;;43.3;32.75;;;;;;;9.1;74.11035;95490.34;;;;
2022/05/01 02:39:58;;;;;;;43.3;32.75;;;;;;;9.1;74.11035;95490.34;;;;
2022/05/01 02:40:58;;;;;;;43.3;32.75;;;;;;;9.1;74.11035;95490.34;;;;
2022/05/01 02:41:59;;;;;;;43.3;32.75;;;;;;;9.1;74.11035;95490.34;;;;
2022/05/01 02:43:00;;;;;;;43.3;32.75;;;;;;;9.1;74.11035;95490.34;;;;
2022/05/01 02:44:00;;;;;;;43.3;32.75;;;;;;;9.1;74.11035;95490.34;;;;
2022/05/01 02:45:01;;;;;;;43.3;32.75;;;;;;;9.1;74.11035;95490.34;;;;
2022/05/01 02:46:02;;;;;;;44;33.09999;;;;;;;9.04;74.55762;95484.99;;;;
2022/05/01 02:47:02;;;;;;;44;33.09999;;;;;;;9.04;74.55762;95484.99;;;;
2022/05/01 02:48:03;;;;;;;44;33.09999;;;;;;;9.04;74.55762;95484.99;;;;
2022/05/01 02:49:05;;;;;;;44;33.09999;;;;;;;9.04;74.55762;95484.99;;;;
2022/05/01 02:50:07;;;;;;;44;33.09999;;;;;;;9.04;74.55762;95484.99;;;;
2022/05/01 02:51:10;;;;;;;44;33.09999;;;;;;;9.04;74.55762;95484.99;;;;
2022/05/01 02:52:11;;;;;;;44;33.09999;;;;;;;9.04;74.55762;95484.99;;;;
2022/05/01 02:53:11;;;;;;;44;33.09999;;;;;;;9.04;74.55762;95484.99;;;;
2022/05/01 02:54:11;;;;;;;44;33.09999;;;;;;;9.04;74.55762;95484.99;;;;
2022/05/01 02:55:12;;;;;;;44;33.09999;;;;;;;9.04;74.55762;95484.99;;;;
2022/05/01 02:56:13;;;;;;;44;33.09999;;;;;;;9.04;74.55762;95484.99;;;;
2022/05/01 02:57:13;;;;;;;46.2;34.19999;;;;;;;9.06;74.97852;95484.16;;;;
2022/05/01 02:58:14;;;;;;;46.2;34.19999;;;;;;;9.06;74.97852;95484.16;;;;
2022/05/01 02:59:15;;;;;;;46.2;34.19999;;;;;;;9.06;74.97852;95484.16;;;;
2022/05/01 03:00:16;;;;;;;46.2;34.19999;;;;;;;9.06;74.97852;95484.16;;;;
2022/05/01 03:01:17;;;;;;;46.2;34.19999;;;;;;;9.06;74.97852;95484.16;;;;
2022/05/01 03:02:18;;;;;;;46.2;34.19999;;;;;;;9.06;74.97852;95484.16;;;;
2022/05/01 03:03:19;;;;;;;46.2;34.19999;;;;;;;9.06;74.97852;95484.16;;;;
2022/05/01 03:04:19;;;;;;;46.2;34.19999;;;;;;;9.06;74.97852;95484.16;;;;
2022/05/01 03:05:20;;;;;;;46.2;34.19999;;;;;;;9.06;74.97852;95484.16;;;;
2022/05/01 03:06:21;;;;;;;46.2;34.19999;;;;;;;9.06;74.97852;95484.16;;;;
2022/05/01 03:07:21;;;;;;;48.45;34.85001;;;;;;;9.04;75.20996;95480.44;;;;
2022/05/01 03:08:21;;;;;;;48.45;34.85001;;;;;;;9.04;75.20996;95480.44;;;;
2022/05/01 03:09:22;;;;;;;48.45;34.85001;;;;;;;9.04;75.20996;95480.44;;;;
2022/05/01 03:10:23;;;;;;;48.45;34.85001;;;;;;;9.04;75.20996;95480.44;;;;
2022/05/01 03:11:24;;;;;;;48.45;34.85001;;;;;;;9.04;75.20996;95480.44;;;;
2022/05/01 03:12:25;;;;;;;48.45;34.85001;;;;;;;9.04;75.20996;95480.44;;;;
2022/05/01 03:13:25;;;;;;;48.45;34.85001;;;;;;;9.04;75.20996;95480.44;;;;
2022/05/01 03:14:26;;;;;;;48.45;34.85001;;;;;;;9.04;75.20996;95480.44;;;;
2022/05/01 03:15:27;;;;;;;48.45;34.85001;;;;;;;9.04;75.20996;95480.44;;;;
2022/05/01 03:16:27;;;;;;;48.45;34.85001;;;;;;;9.04;75.20996;95480.44;;;;
2022/05/01 03:22:10;;;;;;;48.45;34.85001;;;;;;;9.04;75.20996;95480.44;;;;
2022/05/01 03:23:10;;;;;;;45.3;33.8;;;;;;;8.99;75.77539;95474.9;;;;
2022/05/01 03:24:11;;;;;;;45.3;33.8;;;;;;;8.99;75.77539;95474.9;;;;
2022/05/01 03:25:11;;;;;;;45.3;33.8;;;;;;;8.99;75.77539;95474.9;;;;
2022/05/01 03:26:12;;;;;;;45.3;33.8;;;;;;;8.99;75.77539;95474.9;;;;
2022/05/01 03:27:13;;;;;;;45.3;33.8;;;;;;;8.99;75.77539;95474.9;;;;
2022/05/01 03:28:13;;;;;;;45.3;33.8;;;;;;;8.99;75.77539;95474.9;;;;
2022/05/01 03:29:14;;;;;;;46.7;33.19999;;;;;;;8.94;76.19336;95468.81;;;;
2022/05/01 03:30:15;;;;;;;46.7;33.19999;;;;;;;8.94;76.19336;95468.81;;;;
2022/05/01 03:31:16;;;;;;;46.7;33.19999;;;;;;;8.94;76.19336;95468.81;;;;
2022/05/01 03:32:17;;;;;;;46.7;33.19999;;;;;;;8.94;76.19336;95468.81;;;;
2022/05/01 03:33:21;;;;;;;46.7;33.19999;;;;;;;8.94;76.19336;95468.81;;;;
2022/05/01 03:34:23;;;;;;;46.7;33.19999;;;;;;;8.94;76.19336;95468.81;;;;
2022/05/01 03:35:24;;;;;;;46.7;33.19999;;;;;;;8.94;76.19336;95468.81;;;;
2022/05/01 03:36:26;;;;;;;46.7;33.19999;;;;;;;8.94;76.19336;95468.81;;;;
2022/05/01 03:37:28;;;;;;;46.7;33.19999;;;;;;;8.94;76.19336;95468.81;;;;
2022/05/01 03:38:28;;;;;;;46.7;33.19999;;;;;;;8.94;76.19336;95468.81;;;;
2022/05/01 03:39:29;;;;;;;46.6;33.35;;;;;;;8.93;76.52148;95473.08;;;;
2022/05/01 03:40:29;;;;;;;46.6;33.35;;;;;;;8.93;76.52148;95473.08;;;;
2022/05/01 03:41:31;;;;;;;46.6;33.35;;;;;;;8.93;76.52148;95473.08;;;;
2022/05/01 03:42:32;;;;;;;46.6;33.35;;;;;;;8.93;76.52148;95473.08;;;;
2022/05/01 03:43:32;;;;;;;46.6;33.35;;;;;;;8.93;76.52148;95473.08;;;;
2022/05/01 03:44:34;;;;;;;46.6;33.35;;;;;;;8.93;76.52148;95473.08;;;;
2022/05/01 03:45:35;;;;;;;46.6;33.35;;;;;;;8.93;76.52148;95473.08;;;;
2022/05/01 03:46:36;;;;;;;46.6;33.35;;;;;;;8.93;76.52148;95473.08;;;;
2022/05/01 03:47:37;;;;;;;46.6;33.35;;;;;;;8.93;76.52148;95473.08;;;;
2022/05/01 03:48:37;;;;;;;46.6;33.35;;;;;;;8.93;76.52148;95473.08;;;;
2022/05/01 03:49:38;;;;;;;46.6;33.35;;;;;;;8.93;76.52148;95473.08;;;;
2022/05/01 03:50:39;;;;;;;46.6;33.35;;;;;;;8.93;76.52148;95473.08;;;;
2022/05/01 03:51:39;;;;;;;46.6;33.35;;;;;;;8.93;76.52148;95473.08;;;;
2022/05/01 03:52:40;;;;;;;46.6;33.35;;;;;;;8.93;76.52148;95473.08;;;;
2022/05/01 03:53:40;;;;;;;46.6;33.35;;;;;;;8.93;76.52148;95473.08;;;;
2022/05/01 03:54:41;;;;;;;46.6;33.35;;;;;;;8.93;76.52148;95473.08;;;;
2022/05/01 03:55:42;;;;;;;46.6;33.35;;;;;;;8.93;76.52148;95473.08;;;;
2022/05/01 03:56:43;;;;;;;46.6;33.35;;;;;;;8.93;76.52148;95473.08;;;;
2022/05/01 03:57:43;;;;;;;46.6;33.35;;;;;;;8.93;76.52148;95473.08;;;;
2022/05/01 03:58:44;;;;;;;46.6;33.35;;;;;;;8.93;76.52148;95473.08;;;;
2022/05/01 03:59:46;;;;;;;46.6;33.35;;;;;;;8.93;76.52148;95473.08;;;;
2022/05/01 04:00:47;;;;;;;46.6;33.35;;;;;;;8.93;76.52148;95473.08;;;;
2022/05/01 04:01:48;;;;;;;46.6;33.35;;;;;;;8.93;76.52148;95473.08;;;;
2022/05/01 04:02:48;;;;;;;46.6;33.35;;;;;;;8.93;76.52148;95473.08;;;;
2022/05/01 04:03:49;;;;;;;46.6;33.35;;;;;;;8.93;76.52148;95473.08;;;;
2022/05/01 04:04:49;;;;;;;46.6;33.35;;;;;;;8.93;76.52148;95473.08;;;;
2022/05/01 04:05:51;;;;;;;46.6;33.35;;;;;;;8.93;76.52148;95473.08;;;;
2022/05/01 04:06:51;;;;;;;46.6;33.35;;;;;;;8.93;76.52148;95473.08;;;;
2022/05/01 04:07:52;;;;;;;46.6;33.35;;;;;;;8.93;76.52148;95473.08;;;;
2022/05/01 04:08:52;;;;;;;46.6;33.35;;;;;;;8.93;76.52148;95473.08;;;;
2022/05/01 04:09:53;;;;;;;46.6;33.35;;;;;;;8.93;76.52148;95473.08;;;;
2022/05/01 04:10:53;;;;;;;46.6;33.35;;;;;;;8.93;76.52148;95473.08;;;;
2022/05/01 04:11:54;;;;;;;41.55001;31.55;;;;;;;8.89;77.30371;95472.71;;;;
2022/05/01 04:12:54;;;;;;;41.55001;31.55;;;;;;;8.89;77.30371;95472.71;;;;
2022/05/01 04:13:55;;;;;;;41.55001;31.55;;;;;;;8.89;77.30371;95472.71;;;;
2022/05/01 04:14:55;;;;;;;41.55001;31.55;;;;;;;8.89;77.30371;95472.71;;;;
2022/05/01 04:15:57;;;;;;;41.55001;31.55;;;;;;;8.89;77.30371;95472.71;;;;
2022/05/01 04:16:59;;;;;;;41.55001;31.55;;;;;;;8.89;77.30371;95472.71;;;;
2022/05/01 04:18:02;;;;;;;41.55001;31.55;;;;;;;8.89;77.30371;95472.71;;;;
2022/05/01 04:19:04;;;;;;;41.55001;31.55;;;;;;;8.89;77.30371;95472.71;;;;
2022/05/01 04:20:06;;;;;;;41.55001;31.55;;;;;;;8.89;77.30371;95472.71;;;;
2022/05/01 04:21:08;;;;;;;41.55001;31.55;;;;;;;8.89;77.30371;95472.71;;;;
2022/05/01 04:22:09;;;;;;;45.25;32.05;;;;;;;8.8;77.5957;95467.38;;;;
2022/05/01 04:23:10;;;;;;;45.25;32.05;;;;;;;8.8;77.5957;95467.38;;;;
2022/05/01 04:24:11;;;;;;;45.25;32.05;;;;;;;8.8;77.5957;95467.38;;;;
2022/05/01 04:25:11;;;;;;;45.25;32.05;;;;;;;8.8;77.5957;95467.38;;;;
2022/05/01 04:26:15;;;;;;;45.25;32.05;;;;;;;8.8;77.5957;95467.38;;;;
2022/05/01 04:27:15;;;;;;;45.25;32.05;;;;;;;8.8;77.5957;95467.38;;;;
2022/05/01 04:28:16;;;;;;;45.25;32.05;;;;;;;8.8;77.5957;95467.38;;;;
2022/05/01 04:29:48;;;;;;;45.25;32.05;;;;;;;8.8;77.5957;95467.38;;;;
2022/05/01 04:30:50;;;;;;;45.25;32.05;;;;;;;8.8;77.5957;95467.38;;;;
2022/05/01 04:31:50;;;;;;;45.25;32.05;;;;;;;8.8;77.5957;95467.38;;;;
2022/05/01 04:32:51;;;;;;;48.39999;33.15;;;;;;;8.76;77.84375;95478.74;;;;
2022/05/01 04:33:54;;;;;;;48.39999;33.15;;;;;;;8.76;77.84375;95478.74;;;;
2022/05/01 04:34:55;;;;;;;48.39999;33.15;;;;;;;8.76;77.84375;95478.74;;;;
2022/05/01 04:35:55;;;;;;;48.39999;33.15;;;;;;;8.76;77.84375;95478.74;;;;
2022/05/01 04:36:58;;;;;;;48.39999;33.15;;;;;;;8.76;77.84375;95478.74;;;;
2022/05/01 04:37:59;;;;;;;48.39999;33.15;;;;;;;8.76;77.84375;95478.74;;;;
2022/05/01 04:39:04;;;;;;;48.39999;33.15;;;;;;;8.76;77.84375;95478.74;;;;
2022/05/01 04:40:04;;;;;;;48.39999;33.15;;;;;;;8.76;77.84375;95478.74;;;;
2022/05/01 04:41:05;;;;;;;48.39999;33.15;;;;;;;8.76;77.84375;95478.74;;;;
2022/05/01 04:42:07;;;;;;;48.39999;33.15;;;;;;;8.76;77.84375;95478.74;;;;
2022/05/01 04:43:07;;;;;;;44.7;31.65;;;;;;;8.79;78.07422;95484.5;;;;
2022/05/01 04:44:10;;;;;;;44.7;31.65;;;;;;;8.79;78.07422;95484.5;;;;
2022/05/01 04:45:11;;;;;;;44.7;31.65;;;;;;;8.79;78.07422;95484.5;;;;
2022/05/01 04:46:11;;;;;;;44.7;31.65;;;;;;;8.79;78.07422;95484.5;;;;
2022/05/01 04:47:12;;;;;;;44.7;31.65;;;;;;;8.79;78.07422;95484.5;;;;
2022/05/01 04:48:13;;;;;;;44.7;31.65;;;;;;;8.79;78.07422;95484.5;;;;
2022/05/01 04:49:14;;;;;;;44.7;31.65;;;;;;;8.79;78.07422;95484.5;;;;
2022/05/01 04:50:16;;;;;;;44.7;31.65;;;;;;;8.79;78.07422;95484.5;;;;
2022/05/01 04:51:17;;;;;;;44.7;31.65;;;;;;;8.79;78.07422;95484.5;;;;
2022/05/01 04:52:19;;;;;;;44.7;31.65;;;;;;;8.79;78.07422;95484.5;;;;
2022/05/01 04:53:19;;;;;;;44.7;31.65;;;;;;;8.79;78.07422;95484.5;;;;
2022/05/01 04:54:22;;;;;;;49.3;32.45;;;;;;;8.76;78.15234;95486.39;;;;
2022/05/01 04:55:22;;;;;;;49.3;32.45;;;;;;;8.76;78.15234;95486.39;;;;
2022/05/01 04:57:28;;;;;;;49.3;32.45;;;;;;;8.76;78.15234;95486.39;;;;
2022/05/01 04:58:29;;;;;;;49.3;32.45;;;;;;;8.76;78.15234;95486.39;;;;
2022/05/01 04:59:29;;;;;;;49.3;32.45;;;;;;;8.76;78.15234;95486.39;;;;
2022/05/01 05:00:30;;;;;;;49.3;32.45;;;;;;;8.76;78.15234;95486.39;;;;
2022/05/01 05:01:32;;;;;;;49.3;32.45;;;;;;;8.76;78.15234;95486.39;;;;
2022/05/01 05:02:34;;;;;;;49.3;32.45;;;;;;;8.76;78.15234;95486.39;;;;
2022/05/01 05:03:37;;;;;;;49.3;32.45;;;;;;;8.76;78.15234;95486.39;;;;
2022/05/01 05:04:37;;;;;;;45.85;31.9;;;;;;;8.71;78.4209;95491.07;;;;
2022/05/01 05:05:37;;;;;;;45.85;31.9;;;;;;;8.71;78.4209;95491.07;;;;
2022/05/01 05:06:38;;;;;;;45.85;31.9;;;;;;;8.71;78.4209;95491.07;;;;
2022/05/01 05:07:39;;;;;;;45.85;31.9;;;;;;;8.71;78.4209;95491.07;;;;
2022/05/01 05:13:52;;;;;;;45.85;31.9;;;;;;;8.71;78.4209;95491.07;;;;
2022/05/01 05:14:55;;;;;;;45.85;31.9;;;;;;;8.71;78.4209;95491.07;;;;
2022/05/01 05:15:58;;;;;;;45.85;31.9;;;;;;;8.71;78.4209;95491.07;;;;
2022/05/01 05:17:00;;;;;;;45.85;31.9;;;;;;;8.71;78.4209;95491.07;;;;
2022/05/01 05:18:01;;;;;;;45.85;31.9;;;;;;;8.71;78.4209;95491.07;;;;
2022/05/01 05:19:01;;;;;;;45.85;31.9;;;;;;;8.71;78.4209;95491.07;;;;
2022/05/01 05:20:02;;;;;;;45.85;31.9;;;;;;;8.71;78.4209;95491.07;;;;
2022/05/01 05:21:05;;;;;;;45.85;31.9;;;;;;;8.71;78.4209;95491.07;;;;
2022/05/01 05:22:06;;;;;;;45.85;31.9;;;;;;;8.71;78.4209;95491.07;;;;
2022/05/01 05:23:06;;;;;;;45.85;31.9;;;;;;;8.71;78.4209;95491.07;;;;
2022/05/01 05:24:07;;;;;;;45.85;31.9;;;;;;;8.71;78.4209;95491.07;;;;
2022/05/01 05:25:07;;;;;;;45.85;31.9;;;;;;;8.71;78.4209;95491.07;;;;
2022/05/01 05:26:09;;;;;;;47.09999;31.9;;;;;;;8.71;78.76172;95505.46;;;;
2022/05/01 05:27:10;;;;;;;47.09999;31.9;;;;;;;8.71;78.76172;95505.46;;;;
2022/05/01 05:28:11;;;;;;;47.09999;31.9;;;;;;;8.71;78.76172;95505.46;;;;
2022/05/01 05:29:11;;;;;;;47.09999;31.9;;;;;;;8.71;78.76172;95505.46;;;;
2022/05/01 05:30:12;;;;;;;47.09999;31.9;;;;;;;8.71;78.76172;95505.46;;;;
2022/05/01 05:31:13;;;;;;;47.09999;31.9;;;;;;;8.71;78.76172;95505.46;;;;
2022/05/01 05:32:14;;;;;;;47.09999;31.9;;;;;;;8.71;78.76172;95505.46;;;;
2022/05/01 05:33:14;;;;;;;47.09999;31.9;;;;;;;8.71;78.76172;95505.46;;;;
2022/05/01 05:34:15;;;;;;;47.09999;31.9;;;;;;;8.71;78.76172;95505.46;;;;
2022/05/01 05:35:15;;;;;;;47.09999;31.9;;;;;;;8.71;78.76172;95505.46;;;;
2022/05/01 05:36:16;;;;;;;47.09999;31.9;;;;;;;8.71;78.76172;95505.46;;;;
2022/05/01 05:37:17;;;;;;;44.7;31.55;;;;;;;8.7;78.90723;95499.78;;;;
2022/05/01 05:38:19;;;;;;;44.7;31.55;;;;;;;8.7;78.90723;95499.78;;;;
2022/05/01 05:39:19;;;;;;;44.7;31.55;;;;;;;8.7;78.90723;95499.78;;;;
2022/05/01 05:40:20;;;;;;;44.7;31.55;;;;;;;8.7;78.90723;95499.78;;;;
2022/05/01 05:41:21;;;;;;;44.7;31.55;;;;;;;8.7;78.90723;95499.78;;;;
2022/05/01 05:42:22;;;;;;;44.7;31.55;;;;;;;8.7;78.90723;95499.78;;;;
2022/05/01 05:43:22;;;;;;;44.7;31.55;;;;;;;8.7;78.90723;95499.78;;;;
2022/05/01 05:44:23;;;;;;;44.7;31.55;;;;;;;8.7;78.90723;95499.78;;;;
2022/05/01 05:45:23;;;;;;;44.7;31.55;;;;;;;8.7;78.90723;95499.78;;;;
2022/05/01 05:46:24;;;;;;;44.7;31.55;;;;;;;8.7;78.90723;95499.78;;;;
2022/05/01 05:47:24;;;;;;;44.55;31.9;;;;;;;8.75;79.07715;95511.13;;;;
2022/05/01 05:48:25;;;;;;;44.55;31.9;;;;;;;8.75;79.07715;95511.13;;;;
2022/05/01 05:49:25;;;;;;;44.55;31.9;;;;;;;8.75;79.07715;95511.13;;;;
2022/05/01 05:50:26;;;;;;;44.55;31.9;;;;;;;8.75;79.07715;95511.13;;;;
2022/05/01 05:51:26;;;;;;;44.55;31.9;;;;;;;8.75;79.07715;95511.13;;;;
2022/05/01 05:52:27;;;;;;;44.55;31.9;;;;;;;8.75;79.07715;95511.13;;;;
2022/05/01 05:53:27;;;;;;;44.55;31.9;;;;;;;8.75;79.07715;95511.13;;;;
2022/05/01 05:54:28;;;;;;;44.55;31.9;;;;;;;8.75;79.07715;95511.13;;;;
2022/05/01 05:55:33;;;;;;;44.55;31.9;;;;;;;8.75;79.07715;95511.13;;;;
2022/05/01 05:56:33;;;;;;;44.55;31.9;;;;;;;8.75;79.07715;95511.13;;;;
2022/05/01 05:57:34;;;;;;;44.55;31.9;;;;;;;8.75;79.07715;95511.13;;;;
2022/05/01 05:58:34;;;;;;;43.4;31.5;;;;;;;8.75;79.08594;95518.38;;;;
2022/05/01 05:59:35;;;;;;;43.4;31.5;;;;;;;8.75;79.08594;95518.38;;;;
2022/05/01 06:00:36;;;;;;;43.4;31.5;;;;;;;8.75;79.08594;95518.38;;;;
2022/05/01 06:01:37;;;;;;;43.4;31.5;;;;;;;8.75;79.08594;95518.38;;;;
2022/05/01 06:02:37;;;;;;;43.4;31.5;;;;;;;8.75;79.08594;95518.38;;;;
2022/05/01 06:03:38;;;;;;;43.4;31.5;;;;;;;8.75;79.08594;95518.38;;;;
2022/05/01 06:04:41;;;;;;;43.4;31.5;;;;;;;8.75;79.08594;95518.38;;;;
2022/05/01 06:05:41;;;;;;;43.4;31.5;;;;;;;8.75;79.08594;95518.38;;;;